^^
Your Local Weather - Clay, NY Station Historical Data
Daily Summary for April 27, 2017 Units:  English    Metric   Both
« Previous Day
Next Day »
Daily Weekly Monthly Yearly Custom
  High: Low: Average:
Temperature: 81.7 °F 55.1 °F 69.1 °F
Dew Point: 62.3 °F 52.1 °F 56.9 °F
Humidity: 90% 42% 68%
Wind Speed: 9.0mph 0.0mph 3.9mph
Wind Gust: 15.0mph - -
Wind- - ESE
Pressure: 29.75 in 29.57 in -
Precipitation: 0.05 in    
Historical Graphs
 
 
Tabular Data for April 27, 2017
Time Temperature Dew Point Pressure Wind Wind Speed Wind Gust Humidity Rainfall Rate (Hourly) solar
00:00 59.8 °F 54.3 °F 29.70 in East 3.0 mph 3.0 mph 82% 0.00 in 0 W/m2
00:06 59.7 °F 54.2 °F 29.70 in ENE 2.0 mph 3.0 mph 82% 0.00 in 0 W/m2
00:12 59.6 °F 54.1 °F 29.70 in East 2.0 mph 2.0 mph 82% 0.00 in 0 W/m2
00:18 59.6 °F 54.1 °F 29.70 in ENE 2.0 mph 5.0 mph 82% 0.00 in 0 W/m2
00:24 59.6 °F 54.4 °F 29.70 in ENE 3.0 mph 4.0 mph 83% 0.00 in 0 W/m2
00:30 59.3 °F 54.1 °F 29.70 in ENE 2.0 mph 3.0 mph 83% 0.00 in 0 W/m2
00:36 59.0 °F 54.2 °F 29.70 in ENE 2.0 mph 3.0 mph 84% 0.00 in 0 W/m2
00:42 59.1 °F 54.3 °F 29.70 in ENE 3.0 mph 3.0 mph 84% 0.00 in 0 W/m2
00:48 58.9 °F 54.1 °F 29.70 in East 2.0 mph 3.0 mph 84% 0.00 in 0 W/m2
00:54 59.0 °F 54.2 °F 29.70 in East 2.0 mph 4.0 mph 84% 0.00 in 0 W/m2
01:00 58.9 °F 54.1 °F 29.70 in ENE 2.0 mph 2.0 mph 84% 0.00 in 0 W/m2
01:06 58.7 °F 53.9 °F 29.70 in East 1.0 mph 3.0 mph 84% 0.00 in 0 W/m2
01:12 58.5 °F 53.7 °F 29.70 in East 2.0 mph 3.0 mph 84% 0.00 in 0 W/m2
01:18 58.5 °F 54.0 °F 29.71 in East 2.0 mph 3.0 mph 85% 0.00 in 0 W/m2
01:24 58.4 °F 53.9 °F 29.72 in East 1.0 mph 2.0 mph 85% 0.00 in 0 W/m2
01:30 58.1 °F 53.6 °F 29.72 in East 1.0 mph 1.0 mph 85% 0.00 in 0 W/m2
01:36 57.8 °F 53.3 °F 29.72 in NNE 1.0 mph 3.0 mph 85% 0.00 in 0 W/m2
01:42 57.5 °F 53.3 °F 29.71 in ENE 1.0 mph 1.0 mph 86% 0.00 in 0 W/m2
01:48 57.6 °F 53.4 °F 29.72 in ENE 1.0 mph 3.0 mph 86% 0.00 in 0 W/m2
01:54 57.4 °F 53.2 °F 29.72 in ENE 2.0 mph 4.0 mph 86% 0.00 in 0 W/m2
02:00 57.2 °F 53.0 °F 29.72 in ENE 2.0 mph 2.0 mph 86% 0.00 in 0 W/m2
02:06 56.9 °F 53.1 °F 29.72 in ENE 2.0 mph 2.0 mph 87% 0.00 in 0 W/m2
02:12 56.9 °F 53.1 °F 29.72 in ENE 1.0 mph 1.0 mph 87% 0.00 in 0 W/m2
02:18 56.9 °F 53.4 °F 29.72 in ENE 1.0 mph 2.0 mph 88% 0.00 in 0 W/m2
02:23 57.0 °F 53.2 °F 29.72 in ENE 2.0 mph 2.0 mph 87% 0.00 in 0 W/m2
02:30 57.0 °F 53.2 °F 29.72 in East 2.0 mph 2.0 mph 87% 0.00 in 0 W/m2
02:36 57.0 °F 53.2 °F 29.72 in ENE 2.0 mph 5.0 mph 87% 0.00 in 0 W/m2
02:42 57.1 °F 53.3 °F 29.71 in ENE 3.0 mph 3.0 mph 87% 0.00 in 0 W/m2
02:48 56.9 °F 53.1 °F 29.72 in East 3.0 mph 3.0 mph 87% 0.00 in 0 W/m2
02:54 56.7 °F 52.9 °F 29.72 in ENE 2.0 mph 2.0 mph 87% 0.00 in 0 W/m2
02:59 56.7 °F 53.2 °F 29.72 in ENE 2.0 mph 2.0 mph 88% 0.00 in 0 W/m2
03:06 56.7 °F 53.2 °F 29.72 in ESE 2.0 mph 5.0 mph 88% 0.00 in 0 W/m2
03:12 56.8 °F 53.3 °F 29.72 in East 3.0 mph 3.0 mph 88% 0.00 in 0 W/m2
03:18 56.8 °F 53.3 °F 29.72 in East 3.0 mph 3.0 mph 88% 0.00 in 0 W/m2
03:24 56.7 °F 53.2 °F 29.72 in East 3.0 mph 5.0 mph 88% 0.00 in 0 W/m2
03:30 56.7 °F 53.2 °F 29.72 in ENE 3.0 mph 3.0 mph 88% 0.00 in 0 W/m2
03:36 56.5 °F 53.0 °F 29.72 in NE 2.0 mph 3.0 mph 88% 0.00 in 0 W/m2
03:42 56.5 °F 53.0 °F 29.72 in ENE 2.0 mph 3.0 mph 88% 0.00 in 0 W/m2
03:48 56.4 °F 52.9 °F 29.71 in East 2.0 mph 5.0 mph 88% 0.00 in 0 W/m2
03:54 56.3 °F 52.8 °F 29.71 in East 2.0 mph 2.0 mph 88% 0.00 in 0 W/m2
04:00 56.4 °F 52.9 °F 29.71 in East 2.0 mph 6.0 mph 88% 0.00 in 0 W/m2
04:06 56.4 °F 52.9 °F 29.72 in ENE 2.0 mph 6.0 mph 88% 0.00 in 0 W/m2
04:12 56.3 °F 52.8 °F 29.72 in ENE 2.0 mph 2.0 mph 88% 0.00 in 0 W/m2
04:18 56.2 °F 52.7 °F 29.72 in East 2.0 mph 5.0 mph 88% 0.00 in 0 W/m2
04:24 56.0 °F 52.8 °F 29.72 in East 2.0 mph 2.0 mph 89% 0.00 in 0 W/m2
04:30 55.9 °F 52.7 °F 29.72 in ESE 1.0 mph 1.0 mph 89% 0.00 in 0 W/m2
04:36 55.8 °F 52.6 °F 29.72 in ENE 2.0 mph 2.0 mph 89% 0.00 in 0 W/m2
04:42 55.8 °F 52.6 °F 29.72 in ENE 2.0 mph 3.0 mph 89% 0.00 in 0 W/m2
04:48 55.7 °F 52.5 °F 29.72 in ENE 2.0 mph 3.0 mph 89% 0.00 in 0 W/m2
04:54 55.8 °F 52.6 °F 29.72 in East 2.0 mph 3.0 mph 89% 0.00 in 0 W/m2
05:00 55.8 °F 52.6 °F 29.72 in East 2.0 mph 2.0 mph 89% 0.00 in 0 W/m2
05:06 55.5 °F 52.3 °F 29.72 in ENE 2.0 mph 2.0 mph 89% 0.00 in 0 W/m2
05:12 55.3 °F 52.1 °F 29.72 in ENE 1.0 mph 2.0 mph 89% 0.00 in 0 W/m2
05:18 55.1 °F 52.2 °F 29.72 in East 2.0 mph 3.0 mph 90% 0.00 in 0 W/m2
05:24 55.2 °F 52.3 °F 29.72 in ENE 2.0 mph 2.0 mph 90% 0.00 in 0 W/m2
05:30 55.5 °F 52.6 °F 29.72 in East 2.0 mph 2.0 mph 90% 0.00 in 0 W/m2
05:36 55.6 °F 52.7 °F 29.72 in East 2.0 mph 3.0 mph 90% 0.00 in 0 W/m2
05:42 55.5 °F 52.6 °F 29.72 in ESE 2.0 mph 2.0 mph 90% 0.00 in 0 W/m2
05:48 55.5 °F 52.6 °F 29.73 in ENE 2.0 mph 3.0 mph 90% 0.00 in 0 W/m2
05:54 55.5 °F 52.6 °F 29.73 in East 2.0 mph 5.0 mph 90% 0.00 in 0 W/m2
06:00 55.4 °F 52.5 °F 29.73 in ENE 2.0 mph 2.0 mph 90% 0.00 in 0 W/m2
06:06 55.5 °F 52.6 °F 29.73 in ENE 2.0 mph 4.0 mph 90% 0.00 in 5 W/m2
06:12 55.6 °F 52.7 °F 29.73 in ESE 2.0 mph 2.0 mph 90% 0.00 in 9 W/m2
06:18 55.7 °F 52.8 °F 29.73 in East 2.0 mph 2.0 mph 90% 0.00 in 11 W/m2
06:24 55.7 °F 52.8 °F 29.73 in ENE 1.0 mph 4.0 mph 90% 0.00 in 14 W/m2
06:30 56.0 °F 53.1 °F 29.73 in ENE 2.0 mph 4.0 mph 90% 0.00 in 18 W/m2
06:36 56.0 °F 53.1 °F 29.73 in East 2.0 mph 4.0 mph 90% 0.00 in 26 W/m2
06:42 56.1 °F 53.2 °F 29.73 in ENE 2.0 mph 5.0 mph 90% 0.00 in 28 W/m2
06:48 56.4 °F 53.2 °F 29.73 in East 3.0 mph 5.0 mph 89% 0.00 in 49 W/m2
06:54 56.7 °F 53.5 °F 29.74 in ENE 2.0 mph 5.0 mph 89% 0.00 in 93 W/m2
07:00 57.3 °F 54.1 °F 29.73 in East 2.0 mph 2.0 mph 89% 0.00 in 120 W/m2
07:06 57.8 °F 54.3 °F 29.74 in East 3.0 mph 6.0 mph 88% 0.00 in 137 W/m2
07:12 58.3 °F 54.4 °F 29.74 in East 3.0 mph 4.0 mph 87% 0.00 in 151 W/m2
07:18 58.8 °F 54.6 °F 29.74 in ENE 2.0 mph 4.0 mph 86% 0.00 in 165 W/m2
07:24 59.2 °F 54.7 °F 29.74 in ESE 3.0 mph 3.0 mph 85% 0.00 in 178 W/m2
07:30 59.8 °F 55.0 °F 29.74 in ENE 2.0 mph 4.0 mph 84% 0.00 in 192 W/m2
07:36 60.1 °F 54.9 °F 29.74 in East 2.0 mph 6.0 mph 83% 0.00 in 207 W/m2
07:42 60.5 °F 55.3 °F 29.74 in ENE 2.0 mph 4.0 mph 83% 0.00 in 227 W/m2
07:48 61.0 °F 55.5 °F 29.74 in ENE 3.0 mph 4.0 mph 82% 0.00 in 244 W/m2
07:54 61.3 °F 55.4 °F 29.74 in East 3.0 mph 3.0 mph 81% 0.00 in 260 W/m2
08:00 61.9 °F 56.0 °F 29.74 in SE 2.0 mph 3.0 mph 81% 0.00 in 274 W/m2
08:05 62.5 °F 56.2 °F 29.75 in ENE 2.0 mph 3.0 mph 80% 0.00 in 288 W/m2
08:12 63.1 °F 56.1 °F 29.75 in East 1.0 mph 5.0 mph 78% 0.00 in 313 W/m2
08:18 63.6 °F 56.6 °F 29.75 in SE 2.0 mph 5.0 mph 78% 0.00 in 330 W/m2
08:23 64.0 °F 56.6 °F 29.75 in SSE 3.0 mph 5.0 mph 77% 0.00 in 308 W/m2
08:30 64.4 °F 57.0 °F 29.75 in SSE 4.0 mph 4.0 mph 77% 0.00 in 325 W/m2
08:36 64.8 °F 56.7 °F 29.75 in ESE 4.0 mph 4.0 mph 75% 0.00 in 341 W/m2
08:42 65.1 °F 57.0 °F 29.75 in East 4.0 mph 5.0 mph 75% 0.00 in 390 W/m2
08:48 65.7 °F 57.2 °F 29.75 in East 4.0 mph 5.0 mph 74% 0.00 in 410 W/m2
08:54 66.1 °F 57.2 °F 29.75 in SE 4.0 mph 4.0 mph 73% 0.00 in 441 W/m2
09:00 66.2 °F 57.3 °F 29.74 in SE 4.0 mph 8.0 mph 73% 0.00 in 459 W/m2
09:06 66.5 °F 57.6 °F 29.74 in SSE 5.0 mph 11.0 mph 73% 0.00 in 487 W/m2
09:10 66.7 °F 57.8 °F 29.74 in SSE 5.0 mph 5.0 mph 73% 0.00 in 492 W/m2
09:16 67.1 °F 57.4 °F 29.73 in SSE 5.0 mph 7.0 mph 71% 0.00 in 517 W/m2
09:22 67.7 °F 57.6 °F 29.73 in SE 5.0 mph 7.0 mph 70% 0.00 in 529 W/m2
09:28 67.9 °F 58.1 °F 29.73 in SE 5.0 mph 7.0 mph 71% 0.00 in 536 W/m2
09:34 67.7 °F 57.2 °F 29.74 in SE 4.0 mph 8.0 mph 69% 0.00 in 533 W/m2
09:40 67.8 °F 57.3 °F 29.74 in East 4.0 mph 6.0 mph 69% 0.00 in 533 W/m2
09:46 68.0 °F 57.8 °F 29.73 in SE 4.0 mph 10.0 mph 70% 0.00 in 555 W/m2
09:52 68.3 °F 57.3 °F 29.73 in SE 5.0 mph 8.0 mph 68% 0.00 in 615 W/m2
09:58 68.5 °F 57.5 °F 29.73 in SE 5.0 mph 9.0 mph 68% 0.00 in 617 W/m2
10:04 68.6 °F 58.0 °F 29.73 in SE 5.0 mph 8.0 mph 69% 0.00 in 647 W/m2
10:10 69.0 °F 58.4 °F 29.73 in ENE 5.0 mph 5.0 mph 69% 0.00 in 661 W/m2
10:16 69.3 °F 57.9 °F 29.73 in SE 5.0 mph 12.0 mph 67% 0.00 in 680 W/m2
10:22 70.0 °F 59.0 °F 29.73 in ESE 5.0 mph 5.0 mph 68% 0.00 in 700 W/m2
10:28 70.0 °F 59.0 °F 29.73 in SSE 5.0 mph 5.0 mph 68% 0.00 in 715 W/m2
10:34 69.8 °F 57.9 °F 29.73 in SE 6.0 mph 7.0 mph 66% 0.00 in 729 W/m2
10:40 70.8 °F 58.0 °F 29.73 in East 4.0 mph 5.0 mph 64% 0.00 in 738 W/m2
10:46 71.3 °F 58.5 °F 29.73 in East 4.0 mph 7.0 mph 64% 0.00 in 758 W/m2
10:52 70.9 °F 57.7 °F 29.73 in ENE 4.0 mph 4.0 mph 63% 0.00 in 770 W/m2
10:58 71.0 °F 57.8 °F 29.72 in SSE 5.0 mph 8.0 mph 63% 0.00 in 784 W/m2
11:04 71.4 °F 58.6 °F 29.72 in NE 5.0 mph 10.0 mph 64% 0.00 in 793 W/m2
11:10 71.8 °F 58.1 °F 29.72 in SE 5.0 mph 9.0 mph 62% 0.00 in 807 W/m2
11:16 72.1 °F 58.4 °F 29.72 in ESE 5.0 mph 9.0 mph 62% 0.00 in 782 W/m2
11:22 72.1 °F 59.2 °F 29.72 in SE 6.0 mph 9.0 mph 64% 0.00 in 826 W/m2
11:28 72.0 °F 58.7 °F 29.72 in ESE 5.0 mph 9.0 mph 63% 0.00 in 824 W/m2
11:34 72.7 °F 58.5 °F 29.72 in NE 5.0 mph 5.0 mph 61% 0.00 in 814 W/m2
11:40 73.1 °F 57.9 °F 29.72 in SE 6.0 mph 6.0 mph 59% 0.00 in 831 W/m2
11:46 73.2 °F 58.9 °F 29.72 in SE 5.0 mph 8.0 mph 61% 0.00 in 800 W/m2
11:52 73.9 °F 59.6 °F 29.72 in SSE 5.0 mph 7.0 mph 61% 0.00 in 838 W/m2
11:58 73.9 °F 58.2 °F 29.72 in ESE 5.0 mph 8.0 mph 58% 0.00 in 865 W/m2
12:04 74.6 °F 59.8 °F 29.71 in SSE 5.0 mph 7.0 mph 60% 0.00 in 842 W/m2
12:10 74.9 °F 61.0 °F 29.71 in SSE 4.0 mph 4.0 mph 62% 0.00 in 884 W/m2
12:16 74.8 °F 59.0 °F 29.71 in East 4.0 mph 5.0 mph 58% 0.00 in 796 W/m2
12:22 75.0 °F 60.6 °F 29.71 in East 4.0 mph 6.0 mph 61% 0.00 in 847 W/m2
12:28 75.9 °F 59.6 °F 29.71 in ESE 4.0 mph 6.0 mph 57% 0.00 in 877 W/m2
12:34 75.9 °F 59.6 °F 29.70 in ESE 4.0 mph 7.0 mph 57% 0.00 in 895 W/m2
12:40 75.9 °F 59.1 °F 29.70 in East 5.0 mph 7.0 mph 56% 0.00 in 809 W/m2
12:45 76.0 °F 60.2 °F 29.70 in South 4.0 mph 7.0 mph 58% 0.00 in 766 W/m2
12:52 76.0 °F 59.7 °F 29.70 in SSE 4.0 mph 4.0 mph 57% 0.00 in 789 W/m2
12:58 76.1 °F 59.3 °F 29.69 in East 5.0 mph 7.0 mph 56% 0.00 in 772 W/m2
13:04 76.5 °F 61.1 °F 29.68 in SSE 6.0 mph 7.0 mph 59% 0.00 in 812 W/m2
13:09 76.9 °F 60.5 °F 29.68 in SE 5.0 mph 5.0 mph 57% 0.00 in 664 W/m2
13:16 76.6 °F 59.7 °F 29.68 in SE 5.0 mph 5.0 mph 56% 0.00 in 744 W/m2
13:22 76.9 °F 59.5 °F 29.68 in East 4.0 mph 7.0 mph 55% 0.00 in 677 W/m2
13:28 76.8 °F 60.4 °F 29.68 in ENE 5.0 mph 8.0 mph 57% 0.00 in 844 W/m2
13:34 77.7 °F 59.7 °F 29.67 in SE 4.0 mph 9.0 mph 54% 0.00 in 900 W/m2
13:40 77.8 °F 61.8 °F 29.67 in SSE 6.0 mph 11.0 mph 58% 0.00 in 809 W/m2
13:46 78.2 °F 60.2 °F 29.66 in SSE 6.0 mph 11.0 mph 54% 0.00 in 946 W/m2
13:52 78.4 °F 59.3 °F 29.66 in SSE 6.0 mph 8.0 mph 52% 0.00 in 770 W/m2
13:58 78.0 °F 59.5 °F 29.67 in SE 6.0 mph 9.0 mph 53% 0.00 in 814 W/m2
14:04 78.2 °F 60.2 °F 29.66 in SSE 6.0 mph 7.0 mph 54% 0.00 in 668 W/m2
14:10 78.3 °F 60.3 °F 29.65 in SE 6.0 mph 6.0 mph 54% 0.00 in 612 W/m2
14:16 79.1 °F 60.5 °F 29.65 in SE 6.0 mph 6.0 mph 53% 0.00 in 788 W/m2
14:22 79.0 °F 58.8 °F 29.65 in SSE 4.0 mph 5.0 mph 50% 0.00 in 557 W/m2
14:28 79.2 °F 60.6 °F 29.64 in SE 5.0 mph 6.0 mph 53% 0.00 in 898 W/m2
14:40 78.9 °F 58.7 °F 29.63 in East 6.0 mph 6.0 mph 50% 0.00 in 424 W/m2
14:46 79.4 °F 59.7 °F 29.63 in SE 6.0 mph 11.0 mph 51% 0.00 in 715 W/m2
14:52 79.8 °F 58.9 °F 29.63 in SSE 5.0 mph 5.0 mph 49% 0.00 in 788 W/m2
14:58 79.9 °F 59.0 °F 29.63 in SE 6.0 mph 8.0 mph 49% 0.00 in 749 W/m2
15:04 80.2 °F 59.3 °F 29.63 in SSE 6.0 mph 7.0 mph 49% 0.00 in 568 W/m2
15:10 80.2 °F 60.4 °F 29.63 in ESE 5.0 mph 5.0 mph 51% 0.00 in 485 W/m2
15:16 80.2 °F 59.9 °F 29.62 in SE 5.0 mph 12.0 mph 50% 0.00 in 587 W/m2
15:22 79.8 °F 58.9 °F 29.62 in SSE 6.0 mph 6.0 mph 49% 0.00 in 299 W/m2
15:28 79.7 °F 58.8 °F 29.62 in SSE 5.0 mph 6.0 mph 49% 0.00 in 376 W/m2
15:36 79.7 °F 58.3 °F 29.62 in ESE 6.0 mph 8.0 mph 48% 0.00 in 492 W/m2
15:42 80.1 °F 60.3 °F 29.62 in SSE 6.0 mph 9.0 mph 51% 0.00 in 571 W/m2
15:48 80.5 °F 60.1 °F 29.61 in SE 6.0 mph 11.0 mph 50% 0.00 in 603 W/m2
15:54 81.0 °F 60.0 °F 29.60 in SSE 6.0 mph 7.0 mph 49% 0.00 in 742 W/m2
16:00 81.1 °F 59.6 °F 29.60 in SSE 7.0 mph 7.0 mph 48% 0.00 in 701 W/m2
16:06 81.4 °F 58.6 °F 29.60 in SE 8.0 mph 9.0 mph 46% 0.00 in 682 W/m2
16:12 81.5 °F 59.3 °F 29.60 in SSE 8.0 mph 9.0 mph 47% 0.00 in 547 W/m2
16:18 80.5 °F 59.0 °F 29.60 in ESE 9.0 mph 14.0 mph 48% 0.00 in 304 W/m2
16:24 80.8 °F 61.0 °F 29.60 in SE 8.0 mph 13.0 mph 51% 0.00 in 591 W/m2
16:30 81.7 °F 59.5 °F 29.60 in SE 6.0 mph 6.0 mph 47% 0.00 in 538 W/m2
16:36 81.2 °F 58.5 °F 29.60 in South 7.0 mph 14.0 mph 46% 0.00 in 457 W/m2
16:42 81.1 °F 57.7 °F 29.59 in SSW 7.0 mph 7.0 mph 45% 0.00 in 367 W/m2
16:48 80.7 °F 58.6 °F 29.59 in SSE 7.0 mph 8.0 mph 47% 0.00 in 260 W/m2
16:54 80.6 °F 57.9 °F 29.59 in ESE 7.0 mph 14.0 mph 46% 0.00 in 350 W/m2
17:00 81.1 °F 58.4 °F 29.59 in South 6.0 mph 6.0 mph 46% 0.00 in 555 W/m2
17:06 81.5 °F 58.1 °F 29.59 in ESE 8.0 mph 8.0 mph 45% 0.00 in 406 W/m2
17:12 81.3 °F 57.9 °F 29.59 in South 7.0 mph 7.0 mph 45% 0.00 in 362 W/m2
17:18 81.3 °F 57.9 °F 29.59 in South 6.0 mph 7.0 mph 45% 0.00 in 301 W/m2
17:24 80.8 °F 58.7 °F 29.59 in SE 7.0 mph 10.0 mph 47% 0.00 in 176 W/m2
17:30 80.6 °F 57.3 °F 29.59 in South 7.0 mph 10.0 mph 45% 0.00 in 341 W/m2
17:36 81.2 °F 57.2 °F 29.59 in South 7.0 mph 10.0 mph 44% 0.00 in 250 W/m2
17:42 80.9 °F 55.7 °F 29.59 in SSE 7.0 mph 15.0 mph 42% 0.00 in 178 W/m2
17:48 80.4 °F 55.2 °F 29.59 in SE 6.0 mph 15.0 mph 42% 0.00 in 128 W/m2
17:54 80.0 °F 55.5 °F 29.58 in South 6.0 mph 6.0 mph 43% 0.00 in 141 W/m2
18:00 79.8 °F 56.6 °F 29.58 in South 5.0 mph 9.0 mph 45% 0.00 in 151 W/m2
18:06 79.8 °F 57.2 °F 29.58 in SSE 6.0 mph 9.0 mph 46% 0.00 in 128 W/m2
18:12 79.7 °F 56.5 °F 29.58 in ESE 6.0 mph 7.0 mph 45% 0.00 in 98 W/m2
18:18 79.3 °F 56.7 °F 29.58 in ESE 6.0 mph 11.0 mph 46% 0.00 in 81 W/m2
18:24 79.1 °F 57.1 °F 29.58 in SSE 5.0 mph 9.0 mph 47% 0.00 in 70 W/m2
18:30 78.7 °F 57.4 °F 29.57 in SSE 6.0 mph 6.0 mph 48% 0.00 in 63 W/m2
18:36 78.8 °F 57.4 °F 29.57 in SE 6.0 mph 8.0 mph 48% 0.00 in 69 W/m2
18:42 78.6 °F 57.8 °F 29.58 in SE 6.0 mph 11.0 mph 49% 0.00 in 62 W/m2
18:48 78.4 °F 58.2 °F 29.58 in SE 5.0 mph 11.0 mph 50% 0.00 in 49 W/m2
18:54 78.2 °F 58.6 °F 29.57 in East 3.0 mph 4.0 mph 51% 0.00 in 49 W/m2
19:00 78.0 °F 58.9 °F 29.58 in SE 3.0 mph 3.0 mph 52% 0.00 in 35 W/m2
19:05 77.7 °F 58.7 °F 29.58 in SSE 3.0 mph 7.0 mph 52% 0.00 in 25 W/m2
19:12 77.6 °F 59.1 °F 29.58 in SE 4.0 mph 4.0 mph 53% 0.00 in 26 W/m2
19:18 77.5 °F 59.0 °F 29.59 in SSE 4.0 mph 7.0 mph 53% 0.00 in 30 W/m2
19:24 77.5 °F 59.0 °F 29.59 in SSE 4.0 mph 6.0 mph 53% 0.00 in 28 W/m2
19:30 77.5 °F 59.0 °F 29.59 in SSE 4.0 mph 4.0 mph 53% 0.00 in 19 W/m2
19:36 77.0 °F 59.1 °F 29.59 in SSE 3.0 mph 4.0 mph 54% 0.00 in 14 W/m2
19:42 76.6 °F 58.7 °F 29.60 in South 3.0 mph 4.0 mph 54% 0.00 in 5 W/m2
19:48 76.6 °F 58.2 °F 29.60 in SE 3.0 mph 5.0 mph 53% 0.00 in 0 W/m2
19:54 76.4 °F 59.0 °F 29.60 in SE 2.0 mph 3.0 mph 55% 0.00 in 0 W/m2
20:00 76.1 °F 58.8 °F 29.60 in SSE 2.0 mph 4.0 mph 55% 0.00 in 0 W/m2
20:06 75.8 °F 59.0 °F 29.60 in SSE 2.0 mph 4.0 mph 56% 0.00 in 0 W/m2
20:12 75.5 °F 59.2 °F 29.61 in SE 2.0 mph 3.0 mph 57% 0.00 in 0 W/m2
20:18 75.7 °F 58.4 °F 29.61 in SSE 3.0 mph 3.0 mph 55% 0.00 in 0 W/m2
20:24 76.1 °F 57.7 °F 29.61 in South 5.0 mph 5.0 mph 53% 0.00 in 0 W/m2
20:30 76.4 °F 57.5 °F 29.61 in SE 6.0 mph 6.0 mph 52% 0.00 in 0 W/m2
20:36 76.7 °F 57.7 °F 29.61 in SSE 7.0 mph 9.0 mph 52% 0.00 in 0 W/m2
20:42 76.5 °F 57.6 °F 29.62 in South 7.0 mph 9.0 mph 52% 0.00 in 0 W/m2
20:48 76.6 °F 57.7 °F 29.62 in SE 8.0 mph 9.0 mph 52% 0.00 in 0 W/m2
20:54 76.2 °F 57.3 °F 29.63 in South 7.0 mph 8.0 mph 52% 0.00 in 0 W/m2
21:00 76.1 °F 57.7 °F 29.62 in South 6.0 mph 6.0 mph 53% 0.00 in 0 W/m2
21:06 75.9 °F 58.1 °F 29.63 in South 5.0 mph 8.0 mph 54% 0.00 in 0 W/m2
21:12 75.9 °F 58.1 °F 29.63 in South 7.0 mph 7.0 mph 54% 0.00 in 0 W/m2
21:18 75.8 °F 58.0 °F 29.63 in SSE 6.0 mph 7.0 mph 54% 0.00 in 0 W/m2
21:24 75.7 °F 58.4 °F 29.63 in SSE 6.0 mph 7.0 mph 55% 0.00 in 0 W/m2
21:30 75.5 °F 58.2 °F 29.63 in South 5.0 mph 5.0 mph 55% 0.00 in 0 W/m2
21:36 75.5 °F 58.2 °F 29.63 in South 5.0 mph 7.0 mph 55% 0.00 in 0 W/m2
21:42 75.4 °F 58.1 °F 29.63 in SE 5.0 mph 7.0 mph 55% 0.00 in 0 W/m2
21:48 75.2 °F 58.4 °F 29.63 in South 6.0 mph 8.0 mph 56% 0.00 in 0 W/m2
21:54 75.1 °F 58.3 °F 29.63 in South 6.0 mph 8.0 mph 56% 0.00 in 0 W/m2
22:00 75.0 °F 58.2 °F 29.63 in SSE 5.0 mph 5.0 mph 56% 0.00 in 0 W/m2
22:06 75.0 °F 58.7 °F 29.63 in SSE 4.0 mph 6.0 mph 57% 0.00 in 0 W/m2
22:12 74.9 °F 59.1 °F 29.63 in SW 4.0 mph 7.0 mph 58% 0.00 in 0 W/m2
22:18 75.0 °F 58.7 °F 29.64 in SSE 4.0 mph 7.0 mph 57% 0.00 in 0 W/m2
22:24 74.8 °F 59.0 °F 29.64 in South 3.0 mph 4.0 mph 58% 0.00 in 0 W/m2
22:30 74.8 °F 59.0 °F 29.64 in South 4.0 mph 7.0 mph 58% 0.00 in 0 W/m2
22:36 74.6 °F 59.3 °F 29.65 in SSW 3.0 mph 7.0 mph 59% 0.00 in 0 W/m2
22:42 74.2 °F 59.4 °F 29.65 in SE 2.0 mph 3.0 mph 60% 0.00 in 0 W/m2
22:48 73.7 °F 60.3 °F 29.66 in SSW 1.0 mph 3.0 mph 63% 0.00 in 0 W/m2
22:54 73.3 °F 60.4 °F 29.66 in South 2.0 mph 7.0 mph 64% 0.00 in 0 W/m2
23:00 72.8 °F 60.3 °F 29.66 in SSW 2.0 mph 2.0 mph 65% 0.00 in 0 W/m2
23:06 72.4 °F 61.2 °F 29.66 in SSW 1.0 mph 2.0 mph 68% 0.00 in 0 W/m2
23:12 71.6 °F 60.9 °F 29.66 in SE 1.0 mph 1.0 mph 69% 0.00 in 0 W/m2
23:18 71.5 °F 60.8 °F 29.68 in SSW 1.0 mph 2.0 mph 69% 0.00 in 0 W/m2
23:24 71.4 °F 61.1 °F 29.68 in South 1.0 mph 4.0 mph 70% 0.00 in 0 W/m2
23:30 71.0 °F 61.1 °F 29.68 in SSE 2.0 mph 3.0 mph 71% 0.21 in 0 W/m2
23:36 70.4 °F 61.3 °F 29.68 in South 3.0 mph 6.0 mph 73% 0.10 in 0 W/m2
23:42 69.9 °F 61.6 °F 29.67 in SSW 2.0 mph 2.0 mph 75% 0.07 in 0 W/m2
23:48 69.1 °F 62.3 °F 29.68 in SSW 1.0 mph 2.0 mph 79% 0.05 in 0 W/m2
23:54 68.4 °F 62.3 °F 29.68 in Calm   1.0 mph 81% 0.05 in 0 W/m2
Country Meadow, Clay, NY, USA
Compliments of Weather Underground - 2 mb